createdAt,value
2022-09-13T15:51:38.849Z,58569.11
2022-09-13T15:51:39.449Z,57421.23
2022-09-13T15:51:39.607Z,57421.60
2022-09-13T15:51:39.804Z,57420.30
2022-09-13T15:51:40.025Z,57420.86
2022-09-13T15:51:40.241Z,57410.71
2022-09-13T15:51:45.053Z,57355.13
2022-09-13T15:51:55.029Z,57311.93
2022-09-13T15:52:05.071Z,57311.00
2022-09-13T15:52:29.376Z,58678.33
2022-09-13T15:52:29.576Z,58315.66
2022-09-13T15:52:35.108Z,57510.52
2022-09-13T15:52:45.054Z,57444.29
2022-09-13T15:52:55.029Z,57432.68
2022-09-13T15:53:05.098Z,57444.29
2022-09-13T15:53:15.104Z,57454.62
2022-09-13T15:53:25.020Z,57487.08
2022-09-13T15:53:35.130Z,57487.63
2022-09-13T15:53:45.001Z,57519.52
2022-09-13T15:53:55.033Z,57581.77
2022-09-13T15:54:05.101Z,57628.21
2022-09-13T15:54:15.090Z,57651.05
2022-09-13T15:54:25.025Z,57695.78
2022-09-13T15:54:35.078Z,57753.19
2022-09-13T15:54:47.081Z,57793.94
2022-09-13T15:54:55.039Z,57808.69
2022-09-13T15:55:05.093Z,57841.00
2022-09-13T15:55:15.102Z,57864.17
2022-09-13T15:55:25.029Z,57906.91
2022-09-13T15:55:35.004Z,57919.07
2022-09-13T15:55:45.104Z,57908.58
2022-09-13T15:55:55.077Z,57941.79
2022-09-13T15:56:05.006Z,57954.32
2022-09-13T15:56:15.072Z,57985.28
2022-09-13T15:56:25.096Z,57986.02
2022-09-13T15:56:35.045Z,58027.61
2022-09-13T15:56:45.034Z,58020.32
2022-09-13T15:56:55.046Z,58063.38
2022-09-13T15:57:05.080Z,58085.75
2022-09-13T15:57:15.013Z,58096.16
2022-09-13T15:57:25.085Z,58138.43
2022-09-13T15:57:35.046Z,58183.66
2022-09-13T15:57:45.109Z,58195.94
2022-09-13T15:57:55.037Z,58248.40
2022-09-13T15:58:05.101Z,58269.60
2022-09-13T15:58:15.017Z,58282.41
2022-09-13T15:58:25.060Z,58271.83
2022-09-13T15:59:11.309Z,59642.61
2022-09-13T15:59:11.586Z,59063.21
2022-09-13T15:59:11.856Z,58912.25
2022-09-13T15:59:11.978Z,58805.88
2022-09-13T15:59:15.078Z,58523.50
2022-09-13T15:59:25.000Z,58421.14
2022-09-13T15:59:34.992Z,58390.68
2022-09-13T15:59:45.053Z,58360.99
2022-09-13T15:59:55.004Z,58358.20
2022-09-13T16:00:06.776Z,58377.89
2022-09-13T16:00:14.994Z,58360.43
2022-09-13T16:00:25.037Z,58358.57
2022-09-13T16:00:35.083Z,58339.46
2022-09-13T16:00:45.111Z,58368.23
2022-09-13T16:00:55.144Z,58370.09
2022-09-13T16:01:05.150Z,58378.82
2022-09-13T16:01:15.219Z,58371.95
2022-09-13T16:01:25.119Z,58379.75
2022-09-13T16:01:35.063Z,58392.91
2022-09-13T16:01:45.139Z,58392.54
2022-09-13T16:01:55.185Z,58391.80
2022-09-13T16:02:05.153Z,58392.17
2022-09-13T16:02:15.127Z,58402.60
2022-09-13T16:02:25.094Z,58423.93
2022-09-13T16:02:35.133Z,58445.62
2022-09-13T16:02:45.036Z,58468.08
2022-09-13T16:02:55.071Z,58479.77
2022-09-13T16:03:05.051Z,58513.51
2022-09-13T16:03:15.043Z,58523.31
2022-09-13T16:03:25.012Z,58545.19
2022-09-13T16:03:35.024Z,58536.69
2022-09-13T16:03:45.081Z,58567.25
2022-09-13T16:03:55.040Z,58568.74
2022-09-13T16:04:05.101Z,58590.21
2022-09-13T16:04:15.007Z,58578.90
2022-09-13T16:04:25.019Z,58622.42
2022-09-13T16:04:35.102Z,58622.05
2022-09-13T16:04:45.167Z,58624.28
2022-09-13T16:04:55.055Z,58646.51
2022-09-13T16:05:05.065Z,58646.70
2022-09-13T16:05:15.007Z,58687.21
2022-09-13T16:05:25.061Z,58677.58
2022-09-13T16:05:35.047Z,58667.80
2022-09-13T16:05:45.009Z,58657.04
2022-09-13T16:05:55.105Z,58678.51
2022-09-13T16:06:05.000Z,58677.40
2022-09-13T16:06:15.096Z,58689.06
2022-09-13T16:06:25.091Z,58679.26
2022-09-13T16:06:35.095Z,58709.76
2022-09-13T16:06:45.100Z,58700.91
2022-09-13T16:06:55.034Z,58701.10
2022-09-13T16:07:05.018Z,58704.26
2022-09-13T16:07:20.228Z,58715.34
2022-09-13T16:08:04.050Z,60089.66
2022-09-13T16:08:04.226Z,59257.78
2022-09-13T16:08:04.406Z,59171.51
2022-09-13T16:08:04.552Z,59168.73
2022-09-13T16:08:05.014Z,59102.66
2022-09-13T16:08:15.087Z,58862.41
2022-09-13T16:08:25.112Z,58853.39
2022-09-13T16:08:35.105Z,58821.27
2022-09-13T16:08:45.066Z,58820.90
2022-09-13T16:08:54.991Z,58834.38
2022-09-13T16:09:05.025Z,58823.87
2022-09-13T16:09:15.009Z,58844.16
2022-09-13T16:09:25.089Z,58845.46
2022-09-13T16:09:35.131Z,58855.62
2022-09-13T16:09:45.026Z,58875.17
2022-09-13T16:09:55.050Z,58869.10
2022-09-13T16:10:05.040Z,58909.13
2022-09-13T16:10:15.075Z,58910.24
2022-09-13T16:10:25.110Z,58909.87
2022-09-13T16:10:35.075Z,58921.35
2022-09-13T16:10:45.087Z,58943.45
2022-09-13T16:10:57.905Z,58943.26
2022-09-13T16:11:05.047Z,58942.70
2022-09-13T16:11:14.997Z,58994.91
2022-09-13T16:11:25.013Z,58997.32
2022-09-13T16:11:35.070Z,58998.44
2022-09-13T16:11:44.993Z,59029.94
2022-09-13T16:11:55.035Z,59070.82
2022-09-13T16:12:33.835Z,60391.52
2022-09-13T16:12:34.208Z,59912.29
2022-09-13T16:12:34.471Z,59620.25
2022-09-13T16:12:35.023Z,59446.93
2022-09-13T16:12:47.358Z,59173.00
2022-09-13T16:12:58.500Z,59140.81
2022-09-13T16:13:05.029Z,59149.84
2022-09-13T16:13:17.410Z,59147.99
2022-09-13T16:13:27.059Z,59149.10
2022-09-13T16:14:09.456Z,60552.60
2022-09-13T16:14:09.595Z,60186.44
2022-09-13T16:14:09.798Z,59996.84
2022-09-13T16:14:09.950Z,59848.20
2022-09-13T16:14:54.094Z,60608.43
2022-09-13T16:14:54.268Z,60254.12
2022-09-13T16:14:54.448Z,60040.39
2022-09-13T16:14:54.630Z,59891.11
2022-09-13T16:14:55.124Z,59738.60
2022-09-13T16:15:05.116Z,59412.06
2022-09-13T16:15:18.792Z,59359.77
2022-09-13T16:15:25.102Z,59360.52
2022-09-13T16:15:40.289Z,59371.73
2022-09-13T16:15:53.635Z,59379.96
2022-09-13T16:15:57.946Z,59370.43
2022-09-13T16:16:05.121Z,59369.87
2022-09-13T16:16:15.163Z,59380.89
2022-09-13T16:16:25.018Z,59368.75
2022-09-13T16:16:35.071Z,59370.61
2022-09-13T16:16:45.060Z,59393.18
2022-09-13T16:16:55.288Z,59413.73
2022-09-13T16:17:05.007Z,59412.99
2022-09-13T16:17:14.995Z,59392.07
2022-09-13T16:17:25.076Z,59401.63
2022-09-13T16:17:35.023Z,59422.89
2022-09-13T16:18:04.309Z,60725.36
2022-09-13T16:18:04.615Z,60275.35
2022-09-13T16:18:05.934Z,59933.23
2022-09-13T16:18:21.537Z,59565.34
2022-09-13T16:18:28.931Z,59499.91
2022-09-13T16:18:55.829Z,60801.81
2022-09-13T16:18:56.106Z,60348.86
2022-09-13T16:18:56.333Z,60133.93
2022-09-13T16:19:05.042Z,59587.86
2022-09-13T16:19:15.012Z,59574.08
2022-09-13T16:19:25.014Z,59552.64
2022-09-13T16:19:35.088Z,59544.08
2022-09-13T16:19:45.028Z,59541.67
2022-09-13T16:20:25.036Z,60853.38
2022-09-13T16:20:25.199Z,60004.64
2022-09-13T16:20:25.354Z,59962.34
2022-09-13T16:20:25.514Z,59930.82
2022-09-13T16:20:39.547Z,59642.05
2022-09-13T16:20:48.046Z,59618.58
2022-09-13T16:21:30.192Z,60915.88
2022-09-13T16:21:30.433Z,60287.37
2022-09-13T16:21:30.943Z,60175.70
2022-09-13T16:21:31.098Z,60006.30
2022-09-13T16:21:38.567Z,59715.16
2022-09-13T16:21:48.858Z,59713.30
2022-09-13T16:21:55.716Z,59680.95
2022-09-13T16:22:36.520Z,61001.68
2022-09-13T16:22:36.706Z,60630.68
2022-09-13T16:22:36.922Z,60435.20
2022-09-13T16:22:37.077Z,60265.96
2022-09-13T16:22:45.062Z,59822.41
2022-09-13T16:22:55.034Z,59770.01
2022-09-13T16:23:05.059Z,59749.91
2022-09-13T16:23:15.034Z,59748.25
2022-09-13T16:23:25.009Z,59746.39
2022-09-13T16:23:35.059Z,59728.18
2022-09-13T16:23:50.597Z,59747.50
2022-09-13T16:24:29.726Z,61047.71
2022-09-13T16:24:29.951Z,60478.00
2022-09-13T16:24:30.093Z,60319.50
2022-09-13T16:24:30.247Z,60254.68
2022-09-13T16:25:08.461Z,61111.22
2022-09-13T16:25:08.623Z,60772.28
2022-09-13T16:25:08.792Z,60535.33
2022-09-13T16:25:08.970Z,60428.05
2022-09-13T16:25:15.018Z,59945.48
2022-09-13T16:25:25.050Z,59881.64
2022-09-13T16:25:35.043Z,59850.06
2022-09-13T16:25:45.024Z,59849.69
2022-09-13T16:25:55.102Z,59838.94
2022-09-13T16:26:05.113Z,59850.06
2022-09-13T16:26:15.009Z,59861.05
2022-09-13T16:26:28.583Z,59859.38
2022-09-13T16:26:40.534Z,59890.37
2022-09-13T16:26:48.627Z,59871.98
2022-09-13T16:26:58.594Z,59892.23
2022-09-13T16:27:38.293Z,61218.55
2022-09-13T16:27:38.548Z,60710.18
2022-09-13T16:27:38.821Z,60505.66
2022-09-13T16:27:38.988Z,60374.55
2022-09-13T16:27:45.071Z,60073.20
2022-09-13T16:27:55.022Z,59998.52
2022-09-13T16:28:05.019Z,59977.21
2022-09-13T16:28:15.046Z,59967.16
2022-09-13T16:28:58.097Z,61270.96
2022-09-13T16:28:58.351Z,60933.97
2022-09-13T16:28:58.586Z,60624.45
2022-09-13T16:28:58.704Z,60493.52
2022-09-13T16:29:10.562Z,60128.72
2022-09-13T16:29:21.717Z,60034.28
2022-09-13T16:29:24.997Z,60033.54
2022-09-13T16:29:38.704Z,60032.42
2022-09-13T16:29:45.045Z,60009.83
2022-09-13T16:29:55.102Z,60021.70
2022-09-13T16:30:05.057Z,60033.91
2022-09-13T16:30:15.047Z,60033.91
2022-09-13T16:30:25.100Z,60034.28
2022-09-13T16:30:35.039Z,60036.13
2022-09-13T16:30:45.090Z,60032.61
2022-09-13T16:30:55.009Z,60056.89
2022-09-13T16:31:05.058Z,60075.80
2022-09-13T16:31:15.159Z,60078.02
2022-09-13T16:31:25.117Z,60084.84
2022-09-13T16:31:35.107Z,60096.15
2022-09-13T16:31:45.065Z,60116.15
2022-09-13T16:31:55.131Z,60127.98
2022-09-13T16:32:05.105Z,60118.75
2022-09-13T16:32:15.091Z,60109.68
2022-09-13T16:32:25.070Z,60119.68
2022-09-13T16:32:35.025Z,60119.68
2022-09-13T16:32:45.006Z,60150.20
2022-09-13T16:32:55.020Z,60159.61
2022-09-13T16:33:05.121Z,60161.46
2022-09-13T16:33:15.074Z,60171.68
2022-09-13T16:33:25.026Z,60173.53
2022-09-13T16:33:35.064Z,60193.11
2022-09-13T16:33:45.093Z,60204.96
2022-09-13T16:33:55.096Z,60186.27
2022-09-13T16:34:05.071Z,60206.26
2022-09-13T16:34:15.016Z,60225.65
2022-09-13T16:34:24.997Z,60245.25
2022-09-13T16:34:35.032Z,60226.57
2022-09-13T16:34:45.099Z,60248.59
2022-09-13T16:34:55.089Z,60259.87
2022-09-13T16:35:05.033Z,60269.67
2022-09-13T16:35:15.096Z,60291.27
2022-09-13T16:35:25.023Z,60310.11
2022-09-13T16:35:35.058Z,60311.96
2022-09-13T16:35:45.064Z,60323.02
2022-09-13T16:35:57.941Z,60333.40
2022-09-13T16:36:05.028Z,60344.82
2022-09-13T16:36:15.101Z,60374.36
2022-09-13T16:36:28.062Z,60365.51
2022-09-13T16:36:41.562Z,60395.60
2022-09-13T16:37:18.460Z,61735.85
2022-09-13T16:37:18.846Z,61254.58
2022-09-13T16:37:19.063Z,60955.21
2022-09-13T16:37:19.255Z,60872.36
2022-09-13T16:37:25.009Z,60569.40
2022-09-13T16:37:35.151Z,60506.59
2022-09-13T16:37:45.019Z,60495.00
2022-09-13T16:37:55.022Z,60485.97
2022-09-13T16:38:05.034Z,60514.35
2022-09-13T16:38:17.893Z,60497.97
2022-09-13T16:38:28.707Z,60505.29
2022-09-13T16:38:38.407Z,60528.90
2022-09-13T16:38:50.369Z,60507.89
2022-09-13T16:38:55.216Z,60550.10
2022-09-13T16:39:08.801Z,60550.84
2022-09-13T16:39:18.402Z,60571.44
2022-09-13T16:39:56.348Z,61887.39
2022-09-13T16:39:56.612Z,61488.41
2022-09-13T16:39:56.886Z,61201.97
2022-09-13T16:39:57.147Z,61083.84
2022-09-13T16:40:05.179Z,60684.88
2022-09-13T16:40:16.840Z,60679.68
2022-09-13T16:40:28.743Z,60670.09
2022-09-13T16:40:37.989Z,60650.07
2022-09-13T16:40:52.267Z,60660.56
2022-09-13T16:41:00.269Z,60663.16
2022-09-13T16:41:08.768Z,60672.68
2022-09-13T16:41:20.441Z,60663.53
2022-09-13T16:41:25.102Z,60693.47
2022-09-13T16:41:35.062Z,60686.73
2022-09-13T16:41:45.025Z,60705.81
2022-09-13T16:41:59.300Z,60737.78
2022-09-13T16:42:10.327Z,60739.08
2022-09-13T16:42:15.020Z,60758.37
2022-09-13T16:42:28.329Z,60749.56
2022-09-13T16:42:38.308Z,60760.41
2022-09-13T16:43:19.138Z,62108.98
2022-09-13T16:43:19.474Z,61639.33
2022-09-13T16:43:19.684Z,61395.71
2022-09-13T16:43:20.759Z,61281.15
2022-09-13T16:43:25.098Z,60962.25
2022-09-13T16:43:35.094Z,60907.45
2022-09-13T16:43:48.368Z,60906.71
2022-09-13T16:43:56.251Z,60868.02
2022-09-13T16:44:05.042Z,60876.62
2022-09-13T16:44:20.256Z,60906.71
2022-09-13T16:44:26.832Z,60878.29
2022-09-13T16:45:08.156Z,62213.55
2022-09-13T16:45:08.327Z,61911.39
2022-09-13T16:45:08.518Z,61639.52
2022-09-13T16:45:08.680Z,61543.61
2022-09-13T16:45:15.021Z,61057.35
2022-09-13T16:45:25.003Z,61024.95
2022-09-13T16:45:35.086Z,60995.05
2022-09-13T16:45:45.057Z,61013.91
2022-09-13T16:45:55.070Z,61014.28
2022-09-13T16:46:05.297Z,61024.76
2022-09-13T16:46:15.097Z,61036.83
2022-09-13T16:46:25.103Z,61036.28
2022-09-13T16:46:35.166Z,61055.86
2022-09-13T16:46:45.090Z,61096.46
2022-09-13T16:46:55.133Z,61098.50
2022-09-13T16:47:05.046Z,61108.75
2022-09-13T16:47:15.154Z,61118.07
2022-09-13T16:47:25.102Z,61131.06
2022-09-13T16:47:40.267Z,61128.66
2022-09-13T16:48:18.900Z,62464.09
2022-09-13T16:48:19.059Z,62161.01
2022-09-13T16:48:19.210Z,61985.81
2022-09-13T16:48:19.364Z,61808.83
2022-09-13T16:48:27.201Z,61343.93
2022-09-13T16:48:38.182Z,61279.11
2022-09-13T16:49:18.004Z,62548.86
2022-09-13T16:49:18.182Z,62216.15
2022-09-13T16:49:18.353Z,61996.54
2022-09-13T16:49:18.525Z,61871.02
2022-09-13T16:49:25.044Z,61391.05
2022-09-13T16:49:35.082Z,61366.73
2022-09-13T16:49:45.082Z,61365.25
2022-09-13T16:49:54.991Z,61367.47
2022-09-13T16:50:05.000Z,61357.30
2022-09-13T16:50:47.954Z,62706.98
2022-09-13T16:50:48.121Z,62301.18
2022-09-13T16:50:48.260Z,62094.85
2022-09-13T16:50:48.416Z,62009.79
2022-09-13T16:50:56.737Z,61613.60
2022-09-13T16:51:09.612Z,61527.30
2022-09-13T16:51:15.736Z,61516.40
2022-09-13T16:51:27.724Z,61497.48
2022-09-13T16:51:35.160Z,61519.18
2022-09-13T16:51:50.122Z,61530.45
2022-09-13T16:52:01.382Z,61549.91
2022-09-13T16:52:08.111Z,61560.14
2022-09-13T16:52:20.113Z,61582.71
2022-09-13T16:52:32.454Z,61624.38
2022-09-13T16:52:37.714Z,61633.78
2022-09-13T16:52:45.004Z,61636.93
2022-09-13T16:52:55.005Z,61676.68
2022-09-13T16:53:05.073Z,61677.98
2022-09-13T16:53:15.029Z,61687.82
2022-09-13T16:53:25.079Z,61707.58
2022-09-13T16:53:35.059Z,61720.71
2022-09-13T16:53:45.010Z,61731.81
2022-09-13T16:53:55.033Z,61749.18
2022-09-13T16:54:08.166Z,61772.25
2022-09-13T16:54:18.613Z,61765.61
2022-09-13T16:54:30.122Z,61775.03
2022-09-13T16:55:08.109Z,63088.94
2022-09-13T16:55:08.339Z,62652.47
2022-09-13T16:55:08.634Z,62396.44
2022-09-13T16:55:08.910Z,62275.92
2022-09-13T16:55:15.046Z,61984.60
2022-09-13T16:55:25.076Z,61955.29
2022-09-13T16:55:40.135Z,61974.09
2022-09-13T16:56:20.671Z,63304.53
2022-09-13T16:56:20.828Z,62738.35
2022-09-13T16:56:20.982Z,62604.79
2022-09-13T16:56:21.137Z,62528.88
2022-09-13T16:56:29.549Z,62142.88
2022-09-13T16:56:35.114Z,62112.56
2022-09-13T16:56:45.053Z,62121.20
2022-09-13T16:56:55.103Z,62110.52
2022-09-13T16:57:05.113Z,62121.57
2022-09-13T16:57:50.790Z,63440.23
2022-09-13T16:57:50.954Z,63154.76
2022-09-13T16:57:51.109Z,62944.84
2022-09-13T16:57:51.268Z,62821.33
2022-09-13T16:57:59.175Z,62313.95
2022-09-13T16:58:05.297Z,62280.73
2022-09-13T16:58:18.216Z,62271.88
2022-09-13T16:58:30.158Z,62311.54
2022-09-13T16:59:09.753Z,63659.62
2022-09-13T16:59:09.928Z,63337.52
2022-09-13T16:59:10.118Z,63122.20
2022-09-13T16:59:10.275Z,62987.48
2022-09-13T16:59:15.115Z,62553.78
2022-09-13T16:59:25.084Z,62500.14
2022-09-13T16:59:35.018Z,62470.52
2022-09-13T16:59:45.029Z,62469.59
2022-09-13T16:59:54.998Z,62480.74
2022-09-13T17:00:05.097Z,62489.70
2022-09-13T17:00:15.080Z,62491.55
2022-09-13T17:00:25.083Z,62530.17
2022-09-13T17:00:35.048Z,62542.05
2022-09-13T17:00:44.997Z,62532.39
2022-09-13T17:00:54.993Z,62543.53
2022-09-13T17:01:05.001Z,62546.67
2022-09-13T17:01:15.194Z,62563.29
2022-09-13T17:01:25.101Z,62588.55
2022-09-13T17:01:35.197Z,62597.54
2022-09-13T17:01:45.195Z,62627.30
2022-09-13T17:01:55.664Z,62628.97
2022-09-13T17:02:05.143Z,62638.29
2022-09-13T17:02:15.276Z,62650.74
2022-09-13T17:02:25.226Z,62669.88
2022-09-13T17:02:35.181Z,62670.25
2022-09-13T17:02:45.223Z,62692.20
2022-09-13T17:02:55.214Z,62710.62
2022-09-13T17:03:05.089Z,62713.59
2022-09-13T17:03:15.182Z,62702.61
2022-09-13T17:03:25.086Z,62723.26
2022-09-13T17:03:35.066Z,62745.75
2022-09-13T17:03:45.017Z,62744.09
2022-09-13T17:03:55.234Z,62774.02
2022-09-13T17:04:05.100Z,62795.16
2022-09-13T17:04:15.099Z,62818.55
2022-09-13T17:04:25.028Z,62829.46
2022-09-13T17:04:35.073Z,62840.09
2022-09-13T17:04:52.193Z,62849.89
2022-09-13T17:04:58.978Z,62869.39
2022-09-13T17:05:09.383Z,62870.50
2022-09-13T17:05:18.989Z,62880.16
2022-09-13T17:05:29.386Z,62881.82
2022-09-13T17:05:38.982Z,62894.76
2022-09-13T17:05:46.986Z,62914.62
2022-09-13T17:05:54.998Z,62922.05
2022-09-13T17:06:05.063Z,62943.75
2022-09-13T17:06:15.015Z,62935.21
2022-09-13T17:06:26.951Z,62954.82
2022-09-13T17:06:35.017Z,62945.78
2022-09-13T17:06:45.009Z,62946.89
2022-09-13T17:06:55.098Z,62957.05
2022-09-13T17:07:05.024Z,62968.21
2022-09-13T17:07:15.086Z,62978.18
2022-09-13T17:07:24.996Z,62986.71
2022-09-13T17:07:38.979Z,63009.69
2022-09-13T17:07:48.998Z,63021.50
2022-09-13T17:08:01.176Z,63038.55
2022-09-13T17:08:05.104Z,63031.18
2022-09-13T17:08:15.068Z,63032.85
2022-09-13T17:08:25.027Z,63043.55
2022-09-13T17:08:35.111Z,63045.02
2022-09-13T17:08:45.032Z,63054.66
2022-09-13T17:08:55.096Z,63095.40
2022-09-13T17:09:05.100Z,63094.29
2022-09-13T17:09:15.015Z,63097.25
2022-09-13T17:09:25.045Z,63108.91
2022-09-13T17:09:35.108Z,63118.67
2022-09-13T17:09:44.992Z,63147.91
2022-09-13T17:09:55.098Z,63159.20
2022-09-13T17:10:05.054Z,63170.66
2022-09-13T17:10:15.055Z,63183.23
2022-09-13T17:10:25.062Z,63190.63
2022-09-13T17:10:35.095Z,63211.71
2022-09-13T17:10:45.062Z,63222.76
2022-09-13T17:10:55.043Z,63232.55
2022-09-13T17:11:05.035Z,63243.82
2022-09-13T17:11:15.069Z,63234.77
2022-09-13T17:11:25.077Z,63255.84
2022-09-13T17:11:35.004Z,63263.78
2022-09-13T17:11:45.041Z,63274.68
2022-09-13T17:11:55.058Z,63267.29
2022-09-13T17:12:05.104Z,63296.43
2022-09-13T17:12:15.125Z,63306.45
2022-09-13T17:12:25.093Z,63317.11
2022-09-13T17:12:35.076Z,63308.66
2022-09-13T17:12:45.129Z,63350.34
2022-09-13T17:12:55.983Z,63356.56
2022-09-13T17:13:05.037Z,63349.78
2022-09-13T17:13:15.056Z,63380.55
2022-09-13T17:13:25.085Z,63373.22
2022-09-13T17:13:35.084Z,63387.92
2022-09-13T17:13:45.065Z,63410.24
2022-09-13T17:13:55.000Z,63446.21
2022-09-13T17:14:05.108Z,63486.70
2022-09-13T17:14:15.099Z,63506.22
2022-09-13T17:14:25.012Z,63516.12
2022-09-13T17:14:35.020Z,63492.24
2022-09-13T17:14:45.016Z,63527.77
2022-09-13T17:14:55.073Z,63519.45
2022-09-13T17:15:05.049Z,63531.29
2022-09-13T17:15:15.005Z,63557.18
2022-09-13T17:15:25.037Z,63561.06
2022-09-13T17:15:35.180Z,63590.31
2022-09-13T17:15:45.061Z,63600.20
2022-09-13T17:15:56.785Z,63572.84
2022-09-13T17:16:05.044Z,63600.94
2022-09-13T17:16:15.092Z,63591.98
2022-09-13T17:16:25.192Z,63602.97
2022-09-13T17:16:35.119Z,63629.07
2022-09-13T17:16:45.012Z,63610.69
2022-09-13T17:16:55.079Z,63622.33
2022-09-13T17:17:04.999Z,63622.70
2022-09-13T17:17:15.000Z,63631.10
2022-09-13T17:17:25.084Z,63631.47
2022-09-13T17:17:35.105Z,63641.95
2022-09-13T17:17:45.067Z,63651.51
2022-09-13T17:17:55.002Z,63652.43
2022-09-13T17:18:05.089Z,63652.07
2022-09-13T17:18:15.042Z,63672.05
2022-09-13T17:18:25.012Z,63669.84
2022-09-13T17:18:35.026Z,63670.21
2022-09-13T17:18:45.105Z,63700.11
2022-09-13T17:18:55.059Z,63692.27
2022-09-13T17:19:05.056Z,63680.31
2022-09-13T17:19:15.092Z,63680.31
2022-09-13T17:19:25.063Z,63680.68
2022-09-13T17:19:35.066Z,63690.42
2022-09-13T17:19:48.365Z,63699.00
2022-09-13T17:19:58.955Z,63698.07
2022-09-13T17:20:06.974Z,63699.74
2022-09-13T17:20:15.013Z,63689.31
2022-09-13T17:20:25.037Z,63690.23
2022-09-13T17:20:39.126Z,63689.12
2022-09-13T17:20:46.964Z,63707.49
2022-09-13T17:21:29.363Z,64978.47
2022-09-13T17:21:29.520Z,64695.08
2022-09-13T17:21:29.692Z,64500.64
2022-09-13T17:21:29.846Z,64358.04
2022-09-13T17:21:38.126Z,63849.26
2022-09-13T17:21:45.001Z,63827.43
2022-09-13T17:21:55.651Z,63788.59
2022-09-13T17:22:08.641Z,63770.25
2022-09-13T17:22:18.659Z,63797.76
2022-09-13T17:22:29.129Z,63798.13
2022-09-13T17:22:40.623Z,63808.36
2022-09-13T17:22:45.214Z,63798.50
2022-09-13T17:22:56.616Z,63789.14
2022-09-13T17:23:05.042Z,63819.42
2022-09-13T17:23:18.660Z,63810.57
2022-09-13T17:23:28.648Z,63819.42
2022-09-13T17:24:15.480Z,65058.29
2022-09-13T17:24:15.641Z,64724.45
2022-09-13T17:24:15.811Z,64559.45
2022-09-13T17:24:15.985Z,64426.42
2022-09-13T17:24:16.156Z,64316.48
2022-09-13T17:24:25.081Z,63930.03
2022-09-13T17:24:35.097Z,63879.32
2022-09-13T17:24:45.043Z,63870.35
2022-09-13T17:24:55.102Z,63850.00
2022-09-13T17:25:05.007Z,63868.69
2022-09-13T17:25:15.026Z,63859.53
2022-09-13T17:25:25.095Z,63867.58
2022-09-13T17:25:35.065Z,63847.04
2022-09-13T17:25:45.065Z,63848.89
2022-09-13T17:25:55.036Z,63847.78
2022-09-13T17:26:05.020Z,63838.43
2022-09-13T17:26:15.031Z,63837.70
2022-09-13T17:26:25.012Z,63839.54
2022-09-13T17:26:35.078Z,63839.91
2022-09-13T17:26:45.071Z,63829.46
2022-09-13T17:26:55.082Z,63830.93
2022-09-13T17:27:05.000Z,63830.75
2022-09-13T17:27:15.120Z,63838.80
2022-09-13T17:27:25.099Z,63839.73
2022-09-13T17:27:35.082Z,63831.30
2022-09-13T17:27:45.087Z,63839.91
2022-09-13T17:27:55.145Z,63840.65
2022-09-13T17:28:05.093Z,63831.86
2022-09-13T17:28:15.050Z,63840.65
2022-09-13T17:28:25.088Z,63822.38
2022-09-13T17:28:35.071Z,63842.87
2022-09-13T17:28:45.027Z,63841.39
2022-09-13T17:28:55.137Z,63844.16
2022-09-13T17:29:05.044Z,63833.71
2022-09-13T17:29:15.074Z,63814.82
2022-09-13T17:29:28.162Z,63843.05
2022-09-13T17:29:39.658Z,63844.90
2022-09-13T17:29:48.940Z,63853.51
2022-09-13T17:30:29.204Z,65094.29
2022-09-13T17:30:29.360Z,64812.97
2022-09-13T17:30:29.515Z,64636.00
2022-09-13T17:30:29.691Z,64464.70
2022-09-13T17:30:40.528Z,63948.05
2022-09-13T17:30:48.699Z,63926.42
2022-09-13T17:31:00.606Z,63887.08
2022-09-13T17:31:10.143Z,63866.92
2022-09-13T17:31:17.248Z,63884.86
2022-09-13T17:31:28.701Z,63857.76
2022-09-13T17:31:40.577Z,63857.02
2022-09-13T17:31:48.557Z,63854.99
2022-09-13T17:31:59.126Z,63846.38
2022-09-13T17:32:10.512Z,63846.56
2022-09-13T17:32:19.511Z,63846.56
2022-09-13T17:32:25.595Z,63827.55
2022-09-13T17:32:38.538Z,63838.88
2022-09-13T17:32:45.989Z,63826.44
2022-09-13T17:33:00.259Z,63816.67
2022-09-13T17:33:05.084Z,63817.78
2022-09-13T17:33:17.867Z,63805.89
2022-09-13T17:33:25.026Z,63817.59
2022-09-13T17:33:35.066Z,63799.31
2022-09-13T17:33:44.995Z,63816.48
2022-09-13T17:33:56.141Z,63806.62
2022-09-13T17:34:06.157Z,63808.29
2022-09-13T17:34:15.076Z,63807.73
2022-09-13T17:34:25.008Z,63799.86
2022-09-13T17:34:35.105Z,63826.25
2022-09-13T17:34:45.088Z,63800.05
2022-09-13T17:34:55.164Z,63799.31
2022-09-13T17:35:05.079Z,63807.73
2022-09-13T17:35:15.070Z,63818.33
2022-09-13T17:35:25.099Z,63819.26
2022-09-13T17:35:35.029Z,63830.32
2022-09-13T17:35:45.035Z,63821.47
2022-09-13T17:35:55.106Z,63839.80
2022-09-13T17:36:10.016Z,63821.47
2022-09-13T17:36:51.031Z,65111.22
2022-09-13T17:36:51.599Z,64086.35
2022-09-13T17:36:51.756Z,64065.68
2022-09-13T17:37:29.223Z,65181.55
2022-09-13T17:37:29.399Z,64789.59
2022-09-13T17:37:29.577Z,64606.59
2022-09-13T17:37:29.740Z,64495.78
2022-09-13T17:37:29.875Z,64413.19
2022-09-13T17:38:08.085Z,65214.60
2022-09-13T17:38:08.240Z,64933.64
2022-09-13T17:38:08.395Z,64743.45
2022-09-13T17:38:08.551Z,64591.41
2022-09-13T17:38:19.005Z,64089.12
2022-09-13T17:38:28.921Z,64096.77
2022-09-13T17:38:39.398Z,64057.70
2022-09-13T17:38:48.993Z,64057.89
2022-09-13T17:39:28.111Z,65343.36
2022-09-13T17:39:28.283Z,64996.37
2022-09-13T17:39:28.464Z,64785.86
2022-09-13T17:39:28.640Z,64660.88
2022-09-13T17:39:35.036Z,64226.13
2022-09-13T17:40:19.158Z,65428.71
2022-09-13T17:40:19.429Z,64989.02
2022-09-13T17:40:19.684Z,64746.41
2022-09-13T17:40:19.925Z,64653.54
2022-09-13T17:40:25.118Z,64319.32
2022-09-13T17:40:40.840Z,64277.73
2022-09-13T17:41:18.151Z,65550.62
2022-09-13T17:41:18.316Z,65218.29
2022-09-13T17:41:18.501Z,65017.35
2022-09-13T17:41:18.659Z,64880.41
2022-09-13T17:41:25.024Z,64458.90
2022-09-13T17:41:35.080Z,64409.27
2022-09-13T17:41:45.023Z,64370.12
2022-09-13T17:41:55.086Z,64419.09
2022-09-13T17:42:06.876Z,64409.82
2022-09-13T17:42:49.032Z,65729.31
2022-09-13T17:42:49.188Z,65422.15
2022-09-13T17:42:49.341Z,65242.66
2022-09-13T17:42:49.548Z,65081.36
2022-09-13T17:42:59.827Z,64607.30
2022-09-13T17:43:10.339Z,64606.01
2022-09-13T17:43:48.120Z,65841.52
2022-09-13T17:43:48.384Z,65531.39
2022-09-13T17:43:48.603Z,65241.00
2022-09-13T17:43:48.830Z,65110.89
2022-09-13T17:43:55.007Z,64758.17
2022-09-13T17:44:39.069Z,65951.86
2022-09-13T17:44:39.226Z,65595.91
2022-09-13T17:44:39.381Z,65417.06
2022-09-13T17:44:39.534Z,65313.62
2022-09-13T17:45:18.373Z,66002.87
2022-09-13T17:45:18.589Z,65364.00
2022-09-13T17:45:18.750Z,65273.79
2022-09-13T17:45:18.937Z,65222.53
2022-09-13T17:45:25.043Z,64913.21
2022-09-13T17:45:35.006Z,64861.85
2022-09-13T17:45:45.093Z,64878.75
2022-09-13T17:45:55.043Z,64880.59
2022-09-13T17:46:38.179Z,66172.23
2022-09-13T17:46:38.484Z,65689.08
2022-09-13T17:46:38.708Z,65494.36
2022-09-13T17:46:38.983Z,65385.38
2022-09-13T17:46:45.201Z,65110.89
2022-09-13T17:46:55.162Z,65052.49
2022-09-13T17:47:05.061Z,65043.12
2022-09-13T17:47:15.059Z,65039.98
2022-09-13T17:47:25.005Z,65048.80
2022-09-13T17:47:51.307Z,65043.12
2022-09-13T17:47:51.495Z,65062.55
2022-09-13T17:47:54.990Z,65073.82
2022-09-13T17:48:04.991Z,65082.83